Great Navigator — VRBW8 — position and weather

sailwx.info

Track history (hours):
 
Tides and Currents Weather Stations Pressure Air Temp Water Temp Dewpoint Dewpoint Depression Visibility Wind Speed Wind Dir Waves Ship Positions

Great Navigator

Last reported at 2017-Dec-14 17:18 UTC. Time now 2017-Dec-16 16:31 UTC.
Position N 36°09' W 029°06'.

Length 289 m; draft 10.3 m.

Type: Cargo ship. MMSI: 477158100.

Date/timePositionNaut miles runAvg speedWind from/ knotsBaromVisibWave heightAir tempDewpointWater temp
2017-Dec-14 17:18N 36°09' W 029°06'413.4
2017-Dec-14 17:00N 36°09' W 029°01'713.8
2017-Dec-14 16:30N 36°09' W 028°53'713.7
2017-Dec-14 15:57N 36°09' W 028°44'1513.9
2017-Dec-14 14:52N 36°09' W 028°25'1913.7
2017-Dec-14 13:28N 36°08' W 028°01'1614.1
2017-Dec-14 12:21N 36°08' W 027°42'514.0
2017-Dec-14 12:00N 36°08' W 027°35'714.0
2017-Dec-14 11:28N 36°07' W 027°26'1414.0
2017-Dec-14 10:28N 36°07' W 027°09'714.1
2017-Dec-14 10:00N 36°07' W 027°01'814.1
2017-Dec-14 09:27N 36°07' W 026°51'1814.2
2017-Dec-14 08:13N 36°07' W 026°29'514.3
2017-Dec-14 07:49N 36°07' W 026°23'613.9
2017-Dec-14 07:26N 36°07' W 026°16'614.0
2017-Dec-14 07:00N 36°06' W 026°09'714.2
2017-Dec-14 06:30N 36°06' W 025°60'714.2
2017-Dec-14 06:00N 36°06' W 025°51'714.5
2017-Dec-14 05:30N 36°06' W 025°42'714.4
2017-Dec-14 05:00N 36°06' W 025°33'714.3
2017-Dec-14 04:30N 36°06' W 025°24'714.2
2017-Dec-14 04:00N 36°05' W 025°15'714.2
2017-Dec-14 03:30N 36°05' W 025°07'714.2
2017-Dec-14 03:01N 36°05' W 024°58'714.2
2017-Dec-14 02:31N 36°05' W 024°49'714.2
2017-Dec-14 02:00N 36°05' W 024°40'714.4
2017-Dec-14 01:31N 36°05' W 024°31'714.4
2017-Dec-14 01:00N 36°04' W 024°23'714.4
2017-Dec-14 00:30N 36°04' W 024°14'714.4
2017-Dec-14 00:00N 36°04' W 024°05'714.2
2017-Dec-13 23:30N 36°04' W 023°56'714.1
2017-Dec-13 23:00N 36°04' W 023°47'714.1
2017-Dec-13 22:30N 36°04' W 023°39'714.3
2017-Dec-13 21:59N 36°04' W 023°29'714.0
2017-Dec-13 21:29N 36°03' W 023°21'3414.0
2017-Dec-13 19:04N 36°03' W 022°39'113.8
2017-Dec-13 19:00N 36°03' W 022°38'  
2017-Dec-11 04:46N 35°58' W 008°06'310.4
2017-Dec-11 04:30N 35°58' W 008°03'510.9
2017-Dec-11 04:00N 35°58' W 007°56'510.9
2017-Dec-11 03:30N 35°58' W 007°50'511.0
2017-Dec-11 03:00N 35°58' W 007°43'611.4
2017-Dec-11 02:30N 35°58' W 007°36'611.5
2017-Dec-11 01:57N 35°58' W 007°28'  
2017-Dec-07 02:55N 35°44' E 013°57'614.5
2017-Dec-07 02:30N 35°42' E 014°04'714.6
2017-Dec-07 02:00N 35°40' E 014°12'714.3
2017-Dec-07 01:30N 35°38' E 014°21'714.6
2017-Dec-07 01:00N 35°36' E 014°29'  
Track history (hours):
 
Tides and Currents Weather Stations Pressure Air Temp Water Temp Dewpoint Dewpoint Depression Visibility Wind Speed Wind Dir Waves Ship Positions

Great Navigator

Last reported at 2017-Dec-14 17:18 UTC. Time now 2017-Dec-16 16:31 UTC.
Position N 36°09' W 029°06'.

Length 289 m; draft 10.3 m.

Type: Cargo ship. MMSI: 477158100.

Date/timePositionNaut miles runAvg speedWind from/ knotsBaromVisibWave heightAir tempDewpointWater temp
2017-Dec-14 17:18N 36°09' W 029°06'413.4
2017-Dec-14 17:00N 36°09' W 029°01'713.8
2017-Dec-14 16:30N 36°09' W 028°53'713.7
2017-Dec-14 15:57N 36°09' W 028°44'1513.9
2017-Dec-14 14:52N 36°09' W 028°25'1913.7
2017-Dec-14 13:28N 36°08' W 028°01'1614.1
2017-Dec-14 12:21N 36°08' W 027°42'514.0
2017-Dec-14 12:00N 36°08' W 027°35'714.0
2017-Dec-14 11:28N 36°07' W 027°26'1414.0
2017-Dec-14 10:28N 36°07' W 027°09'714.1
2017-Dec-14 10:00N 36°07' W 027°01'814.1
2017-Dec-14 09:27N 36°07' W 026°51'1814.2
2017-Dec-14 08:13N 36°07' W 026°29'514.3
2017-Dec-14 07:49N 36°07' W 026°23'613.9
2017-Dec-14 07:26N 36°07' W 026°16'614.0
2017-Dec-14 07:00N 36°06' W 026°09'714.2
2017-Dec-14 06:30N 36°06' W 025°60'714.2
2017-Dec-14 06:00N 36°06' W 025°51'714.5
2017-Dec-14 05:30N 36°06' W 025°42'714.4
2017-Dec-14 05:00N 36°06' W 025°33'714.3
2017-Dec-14 04:30N 36°06' W 025°24'714.2
2017-Dec-14 04:00N 36°05' W 025°15'714.2
2017-Dec-14 03:30N 36°05' W 025°07'714.2
2017-Dec-14 03:01N 36°05' W 024°58'714.2
2017-Dec-14 02:31N 36°05' W 024°49'714.2
2017-Dec-14 02:00N 36°05' W 024°40'714.4
2017-Dec-14 01:31N 36°05' W 024°31'714.4
2017-Dec-14 01:00N 36°04' W 024°23'714.4
2017-Dec-14 00:30N 36°04' W 024°14'714.4
2017-Dec-14 00:00N 36°04' W 024°05'714.2
2017-Dec-13 23:30N 36°04' W 023°56'714.1
2017-Dec-13 23:00N 36°04' W 023°47'714.1
2017-Dec-13 22:30N 36°04' W 023°39'714.3
2017-Dec-13 21:59N 36°04' W 023°29'714.0
2017-Dec-13 21:29N 36°03' W 023°21'3414.0
2017-Dec-13 19:04N 36°03' W 022°39'113.8
2017-Dec-13 19:00N 36°03' W 022°38'  
2017-Dec-11 04:46N 35°58' W 008°06'310.4
2017-Dec-11 04:30N 35°58' W 008°03'510.9
2017-Dec-11 04:00N 35°58' W 007°56'510.9
2017-Dec-11 03:30N 35°58' W 007°50'511.0
2017-Dec-11 03:00N 35°58' W 007°43'611.4
2017-Dec-11 02:30N 35°58' W 007°36'611.5
2017-Dec-11 01:57N 35°58' W 007°28'  
2017-Dec-07 02:55N 35°44' E 013°57'614.5
2017-Dec-07 02:30N 35°42' E 014°04'714.6
2017-Dec-07 02:00N 35°40' E 014°12'714.3
2017-Dec-07 01:30N 35°38' E 014°21'714.6
2017-Dec-07 01:00N 35°36' E 014°29'  

Dump ship's entire track history